sensor_id;sensor_type;location;lat;lon;timestamp;pressure;altitude;pressure_sealevel;temperature;humidity
57574;BME280;63722;48.858;21.906;2023-01-29T00:01:27;99234.84;;;21.71;38.51
57574;BME280;63722;48.858;21.906;2023-01-29T00:03:52;99237.06;;;21.62;38.77
57574;BME280;63722;48.858;21.906;2023-01-29T00:06:18;99228.59;;;21.66;38.57
57574;BME280;63722;48.858;21.906;2023-01-29T00:08:44;99240.66;;;21.68;38.46
57574;BME280;63722;48.858;21.906;2023-01-29T00:11:09;99235.19;;;21.75;38.43
57574;BME280;63722;48.858;21.906;2023-01-29T00:13:35;99229.84;;;21.75;38.41
57574;BME280;63722;48.858;21.906;2023-01-29T00:16:01;99234.06;;;21.71;38.44
57574;BME280;63722;48.858;21.906;2023-01-29T00:18:27;99235.41;;;21.73;38.52
57574;BME280;63722;48.858;21.906;2023-01-29T00:20:54;99234.13;;;21.76;38.18
57574;BME280;63722;48.858;21.906;2023-01-29T00:23:20;99236.81;;;21.76;38.35
57574;BME280;63722;48.858;21.906;2023-01-29T00:25:45;99234.06;;;21.71;38.47
57574;BME280;63722;48.858;21.906;2023-01-29T00:28:11;99237.84;;;21.75;38.74
57574;BME280;63722;48.858;21.906;2023-01-29T00:30:37;99226.16;;;21.64;38.46
57574;BME280;63722;48.858;21.906;2023-01-29T00:33:03;99232.34;;;21.64;38.35
57574;BME280;63722;48.858;21.906;2023-01-29T00:35:29;99224.22;;;21.59;38.43
57574;BME280;63722;48.858;21.906;2023-01-29T00:37:56;99228.13;;;21.69;38.40
57574;BME280;63722;48.858;21.906;2023-01-29T00:40:21;99232.34;;;21.64;38.37
57574;BME280;63722;48.858;21.906;2023-01-29T00:42:47;99232.66;;;21.68;38.34
57574;BME280;63722;48.858;21.906;2023-01-29T00:45:31;99240.09;;;21.66;38.50
57574;BME280;63722;48.858;21.906;2023-01-29T00:47:57;99245.91;;;21.63;38.57
57574;BME280;63722;48.858;21.906;2023-01-29T00:50:22;99242.28;;;21.69;38.50
57574;BME280;63722;48.858;21.906;2023-01-29T00:52:47;99235.09;;;21.70;38.41
57574;BME280;63722;48.858;21.906;2023-01-29T00:55:16;99245.19;;;21.68;38.40
57574;BME280;63722;48.858;21.906;2023-01-29T00:57:42;99239.94;;;21.73;38.19
57574;BME280;63722;48.858;21.906;2023-01-29T01:00:11;99242.84;;;21.71;38.27
57574;BME280;63722;48.858;21.906;2023-01-29T01:02:37;99241.59;;;21.74;38.25
57574;BME280;63722;48.858;21.906;2023-01-29T01:05:21;99235.28;;;21.80;38.23
57574;BME280;63722;48.858;21.906;2023-01-29T01:07:50;99241.69;;;21.79;38.22
57574;BME280;63722;48.858;21.906;2023-01-29T01:10:18;99229.66;;;21.64;38.54
57574;BME280;63722;48.858;21.906;2023-01-29T01:12:52;99231.84;;;21.68;38.38
57574;BME280;63722;48.858;21.906;2023-01-29T01:15:18;99232.97;;;21.72;38.30
57574;BME280;63722;48.858;21.906;2023-01-29T01:17:44;99226.03;;;21.71;38.26
57574;BME280;63722;48.858;21.906;2023-01-29T01:20:10;99223.47;;;21.76;38.23
57574;BME280;63722;48.858;21.906;2023-01-29T01:22:37;99216.31;;;21.64;38.35
57574;BME280;63722;48.858;21.906;2023-01-29T01:25:02;99223.69;;;21.74;38.19
57574;BME280;63722;48.858;21.906;2023-01-29T01:27:28;99232.50;;;21.75;38.15
57574;BME280;63722;48.858;21.906;2023-01-29T01:29:53;99220.72;;;21.71;38.37
57574;BME280;63722;48.858;21.906;2023-01-29T01:32:19;99220.59;;;21.66;38.36
57574;BME280;63722;48.858;21.906;2023-01-29T01:34:44;99234.75;;;21.66;38.63
57574;BME280;63722;48.858;21.906;2023-01-29T01:37:10;99229.66;;;21.64;38.24
57574;BME280;63722;48.858;21.906;2023-01-29T01:39:35;99241.38;;;21.63;38.55
57574;BME280;63722;48.858;21.906;2023-01-29T01:42:00;99235.09;;;21.70;38.34
57574;BME280;63722;48.858;21.906;2023-01-29T01:45:01;99231.84;;;21.68;38.44
57574;BME280;63722;48.858;21.906;2023-01-29T01:48:06;99238.22;;;21.67;38.34
57574;BME280;63722;48.858;21.906;2023-01-29T01:50:57;99235.00;;;21.64;38.43
57574;BME280;63722;48.858;21.906;2023-01-29T01:53:31;99244.28;;;21.62;38.44
57574;BME280;63722;48.858;21.906;2023-01-29T01:56:04;99239.09;;;21.55;38.58
57574;BME280;63722;48.858;21.906;2023-01-29T01:58:38;99243.25;;;21.63;38.54
57574;BME280;63722;48.858;21.906;2023-01-29T02:01:06;99235.00;;;21.64;38.38
57574;BME280;63722;48.858;21.906;2023-01-29T02:03:44;99240.56;;;21.63;38.38
57574;BME280;63722;48.858;21.906;2023-01-29T02:06:31;99245.69;;;21.64;38.30
57574;BME280;63722;48.858;21.906;2023-01-29T02:09:21;99248.91;;;21.67;38.27
57574;BME280;63722;48.858;21.906;2023-01-29T02:12:05;99251.00;;;21.64;38.31
57574;BME280;63722;48.858;21.906;2023-01-29T02:14:32;99243.56;;;21.67;38.15
57574;BME280;63722;48.858;21.906;2023-01-29T02:17:01;99254.81;;;21.69;38.23
57574;BME280;63722;48.858;21.906;2023-01-29T02:22:33;99256.34;;;21.64;38.38
57574;BME280;63722;48.858;21.906;2023-01-29T02:30:41;99244.59;;;21.66;38.30
57574;BME280;63722;48.858;21.906;2023-01-29T02:39:27;99249.63;;;21.62;38.29
57574;BME280;63722;48.858;21.906;2023-01-29T02:42:14;99248.81;;;21.61;38.31
57574;BME280;63722;48.858;21.906;2023-01-29T02:44:58;99254.41;;;21.60;38.23
57574;BME280;63722;48.858;21.906;2023-01-29T02:47:58;99256.91;;;21.67;38.40
57574;BME280;63722;48.858;21.906;2023-01-29T02:50:42;99256.00;;;21.61;38.35
57574;BME280;63722;48.858;21.906;2023-01-29T02:53:15;99246.72;;;21.63;38.31
57574;BME280;63722;48.858;21.906;2023-01-29T02:55:48;99246.84;;;21.57;38.58
57574;BME280;63722;48.858;21.906;2023-01-29T03:00:47;99248.81;;;21.61;38.24
57574;BME280;63722;48.858;21.906;2023-01-29T03:03:29;99247.75;;;21.62;38.27
57574;BME280;63722;48.858;21.906;2023-01-29T03:08:47;99244.50;;;21.60;38.32
57574;BME280;63722;48.858;21.906;2023-01-29T03:11:15;99246.84;;;21.57;38.28
57574;BME280;63722;48.858;21.906;2023-01-29T03:14:05;99254.41;;;21.60;38.30
57574;BME280;63722;48.858;21.906;2023-01-29T03:16:50;99248.81;;;21.61;38.38
57574;BME280;63722;48.858;21.906;2023-01-29T03:19:32;99253.56;;;21.59;38.33
57574;BME280;63722;48.858;21.906;2023-01-29T03:22:01;99260.53;;;21.60;38.36
57574;BME280;63722;48.858;21.906;2023-01-29T03:24:49;99244.84;;;21.64;38.18
57574;BME280;63722;48.858;21.906;2023-01-29T03:27:42;99260.06;;;21.63;38.34
57574;BME280;63722;48.858;21.906;2023-01-29T03:30:28;99252.06;;;21.63;38.14
57574;BME280;63722;48.858;21.906;2023-01-29T03:33:15;99250.81;;;21.54;38.31
57574;BME280;63722;48.858;21.906;2023-01-29T03:35:52;99253.94;;;21.51;38.43
57574;BME280;63722;48.858;21.906;2023-01-29T03:38:20;99236.41;;;21.55;38.47
57574;BME280;63722;48.858;21.906;2023-01-29T03:40:56;99236.97;;;21.57;38.36
57574;BME280;63722;48.858;21.906;2023-01-29T03:46:09;99225.38;;;21.63;38.01
57574;BME280;63722;48.858;21.906;2023-01-29T03:51:32;99233.94;;;21.66;38.30
57574;BME280;63722;48.858;21.906;2023-01-29T03:57:04;99228.28;;;21.62;38.13
57574;BME280;63722;48.858;21.906;2023-01-29T04:00:28;99233.28;;;21.58;38.34
57574;BME280;63722;48.858;21.906;2023-01-29T04:02:39;99230.63;;;21.58;38.26
57574;BME280;63722;48.858;21.906;2023-01-29T04:05:12;99224.13;;;21.54;38.48
57574;BME280;63722;48.858;21.906;2023-01-29T04:07:42;99225.97;;;21.54;38.48
57574;BME280;63722;48.858;21.906;2023-01-29T04:10:12;99222.38;;;21.60;38.28
57574;BME280;63722;48.858;21.906;2023-01-29T04:12:45;99214.59;;;21.58;38.06
57574;BME280;63722;48.858;21.906;2023-01-29T04:15:13;99228.28;;;21.62;37.97
57574;BME280;63722;48.858;21.906;2023-01-29T04:17:42;99224.69;;;21.56;38.31
57574;BME280;63722;48.858;21.906;2023-01-29T04:20:10;99222.69;;;21.63;38.01
57574;BME280;63722;48.858;21.906;2023-01-29T04:22:38;99223.41;;;21.59;38.27
57574;BME280;63722;48.858;21.906;2023-01-29T04:25:07;99224.22;;;21.59;38.18
57574;BME280;63722;48.858;21.906;2023-01-29T04:35:36;99230.94;;;21.62;38.17
57574;BME280;63722;48.858;21.906;2023-01-29T04:38:11;99230.38;;;21.60;38.13
57574;BME280;63722;48.858;21.906;2023-01-29T04:41:04;99228.19;;;21.57;38.41
57574;BME280;63722;48.858;21.906;2023-01-29T04:48:59;99220.50;;;21.60;38.07
57574;BME280;63722;48.858;21.906;2023-01-29T04:51:38;99230.69;;;21.63;38.20
57574;BME280;63722;48.858;21.906;2023-01-29T04:57:17;99230.72;;;21.52;38.42
57574;BME280;63722;48.858;21.906;2023-01-29T04:59:53;99226.22;;;21.52;38.27
57574;BME280;63722;48.858;21.906;2023-01-29T05:02:21;99223.78;;;21.51;38.07
57574;BME280;63722;48.858;21.906;2023-01-29T05:04:49;99223.88;;;21.56;38.17
57574;BME280;63722;48.858;21.906;2023-01-29T05:07:16;99224.69;;;21.56;38.25
57574;BME280;63722;48.858;21.906;2023-01-29T05:09:44;99228.97;;;21.57;38.18
57574;BME280;63722;48.858;21.906;2023-01-29T05:12:13;99231.66;;;21.57;38.05
57574;BME280;63722;48.858;21.906;2023-01-29T05:14:43;99232.44;;;21.58;38.25
57574;BME280;63722;48.858;21.906;2023-01-29T05:17:14;99234.88;;;21.59;38.31
57574;BME280;63722;48.858;21.906;2023-01-29T05:19:40;99230.38;;;21.60;38.09
57574;BME280;63722;48.858;21.906;2023-01-29T05:22:09;99233.84;;;21.60;38.24
57574;BME280;63722;48.858;21.906;2023-01-29T05:24:36;99229.53;;;21.59;38.15
57574;BME280;63722;48.858;21.906;2023-01-29T05:27:02;99234.31;;;21.57;38.26
57574;BME280;63722;48.858;21.906;2023-01-29T05:29:47;99240.22;;;21.59;38.18
57574;BME280;63722;48.858;21.906;2023-01-29T05:32:12;99237.06;;;21.62;38.16
57574;BME280;63722;48.858;21.906;2023-01-29T05:34:38;99230.16;;;21.50;38.45
57574;BME280;63722;48.858;21.906;2023-01-29T05:37:04;99239.09;;;21.55;38.02
57574;BME280;63722;48.858;21.906;2023-01-29T05:39:29;99236.97;;;21.57;38.25
57574;BME280;63722;48.858;21.906;2023-01-29T05:41:54;99236.03;;;21.63;37.96
57574;BME280;63722;48.858;21.906;2023-01-29T05:44:20;99227.09;;;21.58;37.98
57574;BME280;63722;48.858;21.906;2023-01-29T05:46:45;99238.13;;;21.61;38.12
57574;BME280;63722;48.858;21.906;2023-01-29T05:49:11;99231.03;;;21.67;38.12
57574;BME280;63722;48.858;21.906;2023-01-29T05:51:37;99235.94;;;21.58;38.30
57574;BME280;63722;48.858;21.906;2023-01-29T05:54:03;99240.34;;;21.64;38.05
57574;BME280;63722;48.858;21.906;2023-01-29T05:56:28;99235.22;;;21.63;37.90
57574;BME280;63722;48.858;21.906;2023-01-29T05:58:54;99234.31;;;21.57;38.13
57574;BME280;63722;48.858;21.906;2023-01-29T06:01:23;99242.41;;;21.62;38.11
57574;BME280;63722;48.858;21.906;2023-01-29T06:03:48;99243.94;;;21.58;37.91
57574;BME280;63722;48.858;21.906;2023-01-29T06:06:14;99233.16;;;21.53;38.27
57574;BME280;63722;48.858;21.906;2023-01-29T06:08:40;99223.88;;;21.56;38.09
57574;BME280;63722;48.858;21.906;2023-01-29T06:11:10;99222.94;;;21.62;37.77
57574;BME280;63722;48.858;21.906;2023-01-29T06:13:37;99230.13;;;21.61;38.22
57574;BME280;63722;48.858;21.906;2023-01-29T06:16:09;99236.59;;;21.66;38.10
57574;BME280;63722;48.858;21.906;2023-01-29T06:18:36;99229.53;;;21.59;38.09
57574;BME280;63722;48.858;21.906;2023-01-29T06:21:07;99234.78;;;21.54;38.16
57574;BME280;63722;48.858;21.906;2023-01-29T06:23:32;99225.28;;;21.58;38.11
57574;BME280;63722;48.858;21.906;2023-01-29T06:26:00;99224.69;;;21.56;38.09
57574;BME280;63722;48.858;21.906;2023-01-29T06:28:25;99219.09;;;21.58;38.00
57574;BME280;63722;48.858;21.906;2023-01-29T06:30:51;99230.69;;;21.63;38.00
57574;BME280;63722;48.858;21.906;2023-01-29T06:33:16;99230.84;;;21.57;38.08
57574;BME280;63722;48.858;21.906;2023-01-29T06:35:41;99226.88;;;21.59;38.05
57574;BME280;63722;48.858;21.906;2023-01-29T06:38:07;99231.09;;;21.55;37.70
57574;BME280;63722;48.858;21.906;2023-01-29T06:40:32;99228.66;;;21.54;37.96
57574;BME280;63722;48.858;21.906;2023-01-29T06:42:59;99227.94;;;21.58;38.20
57574;BME280;63722;48.858;21.906;2023-01-29T06:45:24;99220.50;;;21.60;37.91
57574;BME280;63722;48.858;21.906;2023-01-29T06:47:50;99220.50;;;21.60;37.83
57574;BME280;63722;48.858;21.906;2023-01-29T06:50:15;99223.72;;;21.62;38.16
57574;BME280;63722;48.858;21.906;2023-01-29T06:52:41;99220.50;;;21.60;37.87
57574;BME280;63722;48.858;21.906;2023-01-29T06:55:07;99230.97;;;21.50;37.96
57574;BME280;63722;48.858;21.906;2023-01-29T06:57:32;99226.31;;;21.57;38.20
57574;BME280;63722;48.858;21.906;2023-01-29T06:59:57;99226.88;;;21.59;37.90
57574;BME280;63722;48.858;21.906;2023-01-29T07:02:23;99224.44;;;21.58;38.04
57574;BME280;63722;48.858;21.906;2023-01-29T07:04:49;99232.91;;;21.55;38.08
57574;BME280;63722;48.858;21.906;2023-01-29T07:07:14;99234.88;;;21.59;37.92
57574;BME280;63722;48.858;21.906;2023-01-29T07:09:40;99231.31;;;21.54;38.17
57574;BME280;63722;48.858;21.906;2023-01-29T07:12:07;99235.34;;;21.56;38.15
57574;BME280;63722;48.858;21.906;2023-01-29T07:14:32;99235.34;;;21.56;38.02
57574;BME280;63722;48.858;21.906;2023-01-29T07:16:58;99236.75;;;21.59;37.98
57574;BME280;63722;48.858;21.906;2023-01-29T07:19:23;99241.94;;;21.66;37.93
57574;BME280;63722;48.858;21.906;2023-01-29T07:21:48;99250.31;;;21.57;37.91
57574;BME280;63722;48.858;21.906;2023-01-29T07:24:14;99246.47;;;21.65;38.03
57574;BME280;63722;48.858;21.906;2023-01-29T07:26:40;99247.66;;;21.57;37.99
57574;BME280;63722;48.858;21.906;2023-01-29T07:29:06;99250.56;;;21.56;37.69
57574;BME280;63722;48.858;21.906;2023-01-29T07:31:32;99257.84;;;21.60;37.98
57574;BME280;63722;48.858;21.906;2023-01-29T07:33:57;99249.28;;;21.58;38.20
57574;BME280;63722;48.858;21.906;2023-01-29T07:36:22;99253.09;;;21.62;37.91
57574;BME280;63722;48.858;21.906;2023-01-29T07:38:49;99255.19;;;21.60;38.06
57574;BME280;63722;48.858;21.906;2023-01-29T07:41:14;99262.41;;;21.60;37.97
57574;BME280;63722;48.858;21.906;2023-01-29T07:43:40;99256.69;;;21.56;38.01
57574;BME280;63722;48.858;21.906;2023-01-29T07:46:05;99266.44;;;21.62;37.85
57574;BME280;63722;48.858;21.906;2023-01-29T07:48:31;99254.75;;;21.52;37.94
57574;BME280;63722;48.858;21.906;2023-01-29T07:50:56;99251.13;;;21.58;38.25
57574;BME280;63722;48.858;21.906;2023-01-29T07:53:23;99257.63;;;21.62;37.99
57574;BME280;63722;48.858;21.906;2023-01-29T07:55:49;99254.16;;;21.61;37.96
57574;BME280;63722;48.858;21.906;2023-01-29T07:58:14;99244.50;;;21.60;37.93
57574;BME280;63722;48.858;21.906;2023-01-29T08:00:39;99246.63;;;21.58;37.81
57574;BME280;63722;48.858;21.906;2023-01-29T08:03:11;99252.06;;;21.63;38.03
57574;BME280;63722;48.858;21.906;2023-01-29T08:05:37;99251.25;;;21.63;37.95
57574;BME280;63722;48.858;21.906;2023-01-29T08:08:02;99243.59;;;21.55;38.31
57574;BME280;63722;48.858;21.906;2023-01-29T08:10:28;99263.66;;;21.57;38.00
57574;BME280;63722;48.858;21.906;2023-01-29T08:12:58;99261.56;;;21.59;38.02
57574;BME280;63722;48.858;21.906;2023-01-29T08:15:24;99261.81;;;21.58;38.05
57574;BME280;63722;48.858;21.906;2023-01-29T08:17:51;99256.22;;;21.59;38.06
57574;BME280;63722;48.858;21.906;2023-01-29T08:20:17;99258.81;;;21.54;38.19
57574;BME280;63722;48.858;21.906;2023-01-29T08:22:43;99257.84;;;21.60;37.87
57574;BME280;63722;48.858;21.906;2023-01-29T08:25:09;99262.03;;;21.56;37.93
57574;BME280;63722;48.858;21.906;2023-01-29T08:27:34;99254.63;;;21.58;38.36
57574;BME280;63722;48.858;21.906;2023-01-29T08:30:00;99260.28;;;21.62;38.06
57574;BME280;63722;48.858;21.906;2023-01-29T08:32:25;99269.34;;;21.61;37.82
57574;BME280;63722;48.858;21.906;2023-01-29T08:34:51;99274.19;;;21.64;37.98
57574;BME280;63722;48.858;21.906;2023-01-29T08:37:16;99270.97;;;21.62;37.88
57574;BME280;63722;48.858;21.906;2023-01-29T08:39:42;99283.59;;;21.67;37.70
57574;BME280;63722;48.858;21.906;2023-01-29T08:42:07;99285.25;;;21.68;37.94
57574;BME280;63722;48.858;21.906;2023-01-29T08:44:32;99289.75;;;21.67;37.84
57574;BME280;63722;48.858;21.906;2023-01-29T08:46:58;99291.53;;;21.61;38.04
57574;BME280;63722;48.858;21.906;2023-01-29T08:49:23;99295.94;;;21.56;37.92
57574;BME280;63722;48.858;21.906;2023-01-29T08:51:49;99294.91;;;21.57;38.11
57574;BME280;63722;48.858;21.906;2023-01-29T08:54:16;99300.00;;;21.58;38.00
57574;BME280;63722;48.858;21.906;2023-01-29T08:56:41;99303.00;;;21.62;37.80
57574;BME280;63722;48.858;21.906;2023-01-29T08:59:08;99309.59;;;21.59;37.94
57574;BME280;63722;48.858;21.906;2023-01-29T09:01:34;99312.28;;;21.59;37.72
57574;BME280;63722;48.858;21.906;2023-01-29T09:03:59;99318.09;;;21.56;37.89
57574;BME280;63722;48.858;21.906;2023-01-29T09:06:24;99326.09;;;21.56;38.04
57574;BME280;63722;48.858;21.906;2023-01-29T09:08:50;99327.81;;;21.62;37.97
57574;BME280;63722;48.858;21.906;2023-01-29T09:11:15;99325.97;;;21.63;37.75
57574;BME280;63722;48.858;21.906;2023-01-29T09:13:41;99330.38;;;21.57;37.93
57574;BME280;63722;48.858;21.906;2023-01-29T09:16:06;99336.53;;;21.70;37.83
57574;BME280;63722;48.858;21.906;2023-01-29T09:21:41;99341.63;;;21.59;37.90
57574;BME280;63722;48.858;21.906;2023-01-29T09:24:06;99342.00;;;21.63;37.85
57574;BME280;63722;48.858;21.906;2023-01-29T09:26:32;99351.50;;;21.59;37.94
57574;BME280;63722;48.858;21.906;2023-01-29T09:28:57;99348.13;;;21.63;37.85
57574;BME280;63722;48.858;21.906;2023-01-29T09:31:22;99352.44;;;21.64;37.94
57574;BME280;63722;48.858;21.906;2023-01-29T09:33:48;99355.09;;;21.64;37.67
57574;BME280;63722;48.858;21.906;2023-01-29T09:36:13;99345.22;;;21.65;37.71
57574;BME280;63722;48.858;21.906;2023-01-29T09:38:38;99345.13;;;21.60;37.74
57574;BME280;63722;48.858;21.906;2023-01-29T09:43:58;99337.59;;;21.57;37.95
57574;BME280;63722;48.858;21.906;2023-01-29T09:46:39;99336.53;;;21.58;37.94
57574;BME280;63722;48.858;21.906;2023-01-29T09:49:35;99327.25;;;21.60;38.00
57574;BME280;63722;48.858;21.906;2023-01-29T09:57:21;99305.09;;;21.60;37.83
57574;BME280;63722;48.858;21.906;2023-01-29T09:59:49;99309.81;;;21.70;37.47
57574;BME280;63722;48.858;21.906;2023-01-29T10:11:16;99304.72;;;21.56;38.04
57574;BME280;63722;48.858;21.906;2023-01-29T10:22:08;99304.88;;;21.61;37.84
57574;BME280;63722;48.858;21.906;2023-01-29T10:24:54;99300.91;;;21.64;37.88
57574;BME280;63722;48.858;21.906;2023-01-29T10:27:20;99296.38;;;21.64;37.71
57574;BME280;63722;48.858;21.906;2023-01-29T10:29:47;99293.94;;;21.63;37.77
57574;BME280;63722;48.858;21.906;2023-01-29T10:32:21;99291.84;;;21.65;37.89
57574;BME280;63722;48.858;21.906;2023-01-29T10:34:58;99274.91;;;21.59;37.71
57574;BME280;63722;48.858;21.906;2023-01-29T10:37:44;99272.84;;;21.61;37.90
57574;BME280;63722;48.858;21.906;2023-01-29T10:43:01;99265.63;;;21.62;37.89
57574;BME280;63722;48.858;21.906;2023-01-29T10:45:44;99260.28;;;21.62;37.95
57574;BME280;63722;48.858;21.906;2023-01-29T10:51:14;99257.16;;;21.65;37.63
57574;BME280;63722;48.858;21.906;2023-01-29T10:54:21;99259.81;;;21.65;37.30
57574;BME280;63722;48.858;21.906;2023-01-29T10:57:00;99255.28;;;21.66;37.72
57574;BME280;63722;48.858;21.906;2023-01-29T11:02:18;99254.63;;;21.58;37.86
57574;BME280;63722;48.858;21.906;2023-01-29T11:04:45;99238.94;;;21.62;37.79
57574;BME280;63722;48.858;21.906;2023-01-29T11:07:12;99243.00;;;21.64;37.78
57574;BME280;63722;48.858;21.906;2023-01-29T11:09:48;99234.16;;;21.64;37.76
57574;BME280;63722;48.858;21.906;2023-01-29T11:12:21;99233.94;;;21.66;37.84
57574;BME280;63722;48.858;21.906;2023-01-29T11:14:54;99227.66;;;21.72;37.73
57574;BME280;63722;48.858;21.906;2023-01-29T11:17:24;99227.00;;;21.64;37.88
57574;BME280;63722;48.858;21.906;2023-01-29T11:19:51;99234.28;;;21.69;37.48
57574;BME280;63722;48.858;21.906;2023-01-29T11:22:27;99227.78;;;21.65;37.67
57574;BME280;63722;48.858;21.906;2023-01-29T11:25:09;99221.19;;;21.68;37.90
57574;BME280;63722;48.858;21.906;2023-01-29T11:27:42;99227.47;;;21.61;37.73
57574;BME280;63722;48.858;21.906;2023-01-29T11:30:36;99226.53;;;21.68;37.66
57574;BME280;63722;48.858;21.906;2023-01-29T11:33:19;99224.31;;;21.64;37.64
57574;BME280;63722;48.858;21.906;2023-01-29T11:35:46;99227.00;;;21.64;37.58
57574;BME280;63722;48.858;21.906;2023-01-29T11:40:41;99207.47;;;21.64;37.85
57574;BME280;63722;48.858;21.906;2023-01-29T11:45:52;99193.09;;;21.65;37.51
57574;BME280;63722;48.858;21.906;2023-01-29T11:48:21;99199.81;;;21.68;37.82
57574;BME280;63722;48.858;21.906;2023-01-29T11:50:56;99194.97;;;21.64;37.56
57574;BME280;63722;48.858;21.906;2023-01-29T11:53:35;99195.44;;;21.61;37.40
57574;BME280;63722;48.858;21.906;2023-01-29T11:56:04;99189.75;;;21.58;37.87
57574;BME280;63722;48.858;21.906;2023-01-29T11:58:33;99191.63;;;21.57;37.93
57574;BME280;63722;48.858;21.906;2023-01-29T12:01:00;99179.44;;;21.61;37.50
57574;BME280;63722;48.858;21.906;2023-01-29T12:04:01;99176.28;;;21.64;37.56
57574;BME280;63722;48.858;21.906;2023-01-29T12:06:33;99178.94;;;21.64;37.46
57574;BME280;63722;48.858;21.906;2023-01-29T12:09:01;99169.88;;;21.66;37.55
57574;BME280;63722;48.858;21.906;2023-01-29T12:11:30;99170.34;;;21.62;37.46
57574;BME280;63722;48.858;21.906;2023-01-29T12:13:59;99172.53;;;21.66;37.65
57574;BME280;63722;48.858;21.906;2023-01-29T12:16:43;99163.41;;;21.61;37.40
57574;BME280;63722;48.858;21.906;2023-01-29T12:22:11;99141.09;;;21.68;37.56
57574;BME280;63722;48.858;21.906;2023-01-29T12:24:53;99135.19;;;21.66;37.29
57574;BME280;63722;48.858;21.906;2023-01-29T12:27:59;99131.22;;;21.68;37.53
57574;BME280;63722;48.858;21.906;2023-01-29T12:30:35;99116.84;;;21.69;37.59
57574;BME280;63722;48.858;21.906;2023-01-29T12:33:35;99120.31;;;21.70;37.63
57574;BME280;63722;48.858;21.906;2023-01-29T12:36:18;99115.78;;;21.70;37.35
57574;BME280;63722;48.858;21.906;2023-01-29T12:38:45;99113.94;;;21.71;37.55
57574;BME280;63722;48.858;21.906;2023-01-29T12:41:38;99121.72;;;21.72;37.29
57574;BME280;63722;48.858;21.906;2023-01-29T12:44:55;99122.97;;;21.70;37.47
57574;BME280;63722;48.858;21.906;2023-01-29T12:46:59;99119.50;;;21.69;37.48
57574;BME280;63722;48.858;21.906;2023-01-29T12:49:31;99107.44;;;21.67;37.32
57574;BME280;63722;48.858;21.906;2023-01-29T12:52:07;99101.88;;;21.68;37.41
57574;BME280;63722;48.858;21.906;2023-01-29T12:54:51;99089.56;;;21.67;37.36
57574;BME280;63722;48.858;21.906;2023-01-29T12:57:35;99084.66;;;21.76;37.40
57574;BME280;63722;48.858;21.906;2023-01-29T13:00:13;99085.44;;;21.76;37.32
57574;BME280;63722;48.858;21.906;2023-01-29T13:07:51;99098.25;;;21.74;37.47
57574;BME280;63722;48.858;21.906;2023-01-29T13:10:24;99105.94;;;21.71;37.45
57574;BME280;63722;48.858;21.906;2023-01-29T13:13:04;99102.19;;;21.72;37.52
57574;BME280;63722;48.858;21.906;2023-01-29T13:15:37;99097.44;;;21.74;37.31
57574;BME280;63722;48.858;21.906;2023-01-29T13:18:19;99104.88;;;21.72;37.61
57574;BME280;63722;48.858;21.906;2023-01-29T13:20:48;99100.66;;;21.76;37.38
57574;BME280;63722;48.858;21.906;2023-01-29T13:23:19;99110.06;;;21.78;37.58
57574;BME280;63722;48.858;21.906;2023-01-29T13:25:49;99107.63;;;21.77;37.43
57574;BME280;63722;48.858;21.906;2023-01-29T13:28:19;99098.41;;;21.68;37.36
57574;BME280;63722;48.858;21.906;2023-01-29T13:30:45;99093.16;;;21.73;37.42
57574;BME280;63722;48.858;21.906;2023-01-29T13:33:21;99092.09;;;21.74;37.42
57574;BME280;63722;48.858;21.906;2023-01-29T13:35:47;99092.91;;;21.74;37.30
57574;BME280;63722;48.858;21.906;2023-01-29T13:38:25;99088.28;;;21.70;37.22
57574;BME280;63722;48.858;21.906;2023-01-29T13:40:55;99081.91;;;21.71;37.43
57574;BME280;63722;48.858;21.906;2023-01-29T13:43:23;99080.59;;;21.73;37.28
57574;BME280;63722;48.858;21.906;2023-01-29T13:45:51;99079.88;;;21.78;37.48
57574;BME280;63722;48.858;21.906;2023-01-29T13:48:24;99081.97;;;21.76;37.29
57574;BME280;63722;48.858;21.906;2023-01-29T13:50:52;99090.00;;;21.76;37.42
57574;BME280;63722;48.858;21.906;2023-01-29T13:53:36;99086.75;;;21.74;37.44
57574;BME280;63722;48.858;21.906;2023-01-29T13:58:55;99091.63;;;21.77;37.18
57574;BME280;63722;48.858;21.906;2023-01-29T14:04:30;99092.81;;;21.69;37.56
57574;BME280;63722;48.858;21.906;2023-01-29T14:06:57;99090.41;;;21.68;37.62
57574;BME280;63722;48.858;21.906;2023-01-29T14:12:01;99084.00;;;21.69;37.35
57574;BME280;63722;48.858;21.906;2023-01-29T14:17:25;99092.22;;;21.67;37.30
57574;BME280;63722;48.858;21.906;2023-01-29T14:20:00;99101.63;;;21.70;37.35
57574;BME280;63722;48.858;21.906;2023-01-29T14:22:28;99087.72;;;21.68;37.56
57574;BME280;63722;48.858;21.906;2023-01-29T14:24:59;99092.09;;;21.74;37.46
57574;BME280;63722;48.858;21.906;2023-01-29T14:27:25;99087.50;;;21.69;37.53
57574;BME280;63722;48.858;21.906;2023-01-29T14:29:58;99094.53;;;21.75;37.39
57574;BME280;63722;48.858;21.906;2023-01-29T14:32:24;99097.09;;;21.70;37.21
57574;BME280;63722;48.858;21.906;2023-01-29T14:34:55;99101.06;;;21.68;37.43
57574;BME280;63722;48.858;21.906;2023-01-29T14:45:36;99109.06;;;21.68;37.38
57574;BME280;63722;48.858;21.906;2023-01-29T14:53:42;99122.56;;;21.61;37.57
57574;BME280;63722;48.858;21.906;2023-01-29T14:56:25;99120.97;;;21.60;37.71
57574;BME280;63722;48.858;21.906;2023-01-29T14:58:56;99123.28;;;21.56;37.60
57574;BME280;63722;48.858;21.906;2023-01-29T15:01:36;99128.13;;;21.59;37.61
57574;BME280;63722;48.858;21.906;2023-01-29T15:06:46;99130.81;;;21.59;37.43
57574;BME280;63722;48.858;21.906;2023-01-29T15:09:47;99130.00;;;21.59;37.53
57574;BME280;63722;48.858;21.906;2023-01-29T15:12:24;99128.03;;;21.54;37.66
57574;BME280;63722;48.858;21.906;2023-01-29T15:18:13;99118.41;;;21.53;37.70